Time;durP1;ratioP1;P1;durP2;ratioP2;P2;SDS_P1;SDS_P2;PMS_P1;PMS_P2;Temp;Humidity;BMP_temperature;BMP_pressure;BME280_temperature;BME280_humidity;BME280_pressure;Samples;Min_cycle;Max_cycle;Signal;HPM_P1;HPM_P2
2022/11/10 00:02:56;;;;;;;98.10;24.82;;;;;;;1.78;86.14;101236.87;1656713;86;21250;-76
2022/11/10 00:06:21;;;;;;;90.22;22.87;;;;;;;1.89;85.54;101238.05;1655801;86;21851;-77
2022/11/10 00:09:44;;;;;;;85.32;24.15;;;;;;;1.78;85.67;101237.37;1656749;86;21230;-77
2022/11/10 00:13:09;;;;;;;182.82;26.00;;;;;;;1.85;85.47;101239.21;1656742;86;21173;-77
2022/11/10 00:20:15;;;;;;;192.15;23.67;;;;;;;1.86;85.13;101239.59;1656768;86;21788;-77
2022/11/10 00:23:40;;;;;;;286.43;24.02;;;;;;;1.82;85.45;101245.66;1656588;86;21550;-77
2022/11/10 00:27:05;;;;;;;149.35;22.73;;;;;;;1.87;85.09;101239.97;1656226;86;21194;-77
2022/11/10 00:30:28;;;;;;;102.90;23.42;;;;;;;1.83;85.04;101229.84;1670615;86;22560;-76
2022/11/10 00:33:53;;;;;;;141.25;25.35;;;;;;;1.71;85.19;101226.11;1673364;86;21188;-76
2022/11/10 00:37:18;;;;;;;128.87;24.57;;;;;;;1.82;84.65;101227.25;1672600;86;21259;-77
2022/11/10 00:40:41;;;;;;;82.45;22.22;;;;;;;1.53;84.83;101231.31;1673638;86;21732;-77
2022/11/10 00:44:05;;;;;;;54.30;21.35;;;;;;;1.64;84.59;101228.80;1673305;86;21201;-76
2022/11/10 00:47:28;;;;;;;50.12;19.42;;;;;;;1.57;84.03;101226.12;1673227;85;21216;-77
2022/11/10 00:50:51;;;;;;;61.23;19.07;;;;;;;1.49;84.47;101229.77;1673300;86;21774;-76
2022/11/10 00:54:15;;;;;;;84.42;20.55;;;;;;;1.73;83.63;101228.70;1673298;86;21192;-76
2022/11/10 00:57:37;;;;;;;85.65;17.90;;;;;;;1.46;84.13;101231.33;1673316;86;21228;-76
2022/11/10 01:01:04;;;;;;;63.50;19.40;;;;;;;1.40;84.33;101237.94;1673342;86;21197;-76
2022/11/10 01:04:27;;;;;;;80.40;23.38;;;;;;;1.38;84.47;101229.58;1673265;86;21192;-77
2022/11/10 01:07:51;;;;;;;43.70;21.00;;;;;;;1.49;84.42;101227.94;1672435;86;21204;-76
2022/11/10 01:11:20;;;;;;;53.40;20.92;;;;;;;1.48;84.30;101233.43;1673264;86;21231;-76
2022/11/10 01:14:44;;;;;;;74.62;25.85;;;;;;;1.54;84.66;101237.08;1673462;86;21196;-76
2022/11/10 01:18:08;;;;;;;109.67;21.17;;;;;;;1.56;84.45;101232.48;1672034;86;21251;-77
2022/11/10 01:21:31;;;;;;;115.77;22.60;;;;;;;1.49;84.36;101232.47;1673263;86;21192;-76
2022/11/10 01:24:56;;;;;;;97.88;20.32;;;;;;;1.56;83.99;101232.48;1672353;86;21220;-76
2022/11/10 01:28:20;;;;;;;117.62;19.85;;;;;;;1.65;83.91;101235.09;1672935;86;21802;-76
2022/11/10 01:31:43;;;;;;;136.85;19.50;;;;;;;1.61;83.84;101231.70;1673395;86;21224;-77
2022/11/10 01:35:07;;;;;;;149.68;18.42;;;;;;;1.55;84.13;101234.77;1673283;86;21739;-76
2022/11/10 01:38:35;;;;;;;78.02;16.15;;;;;;;1.51;84.51;101230.08;1671985;86;21886;-76
2022/11/10 01:41:58;;;;;;;34.73;15.03;;;;;;;1.64;84.50;101234.19;1673413;86;21181;-76
2022/11/10 01:45:36;;;;;;;38.65;15.03;;;;;;;1.56;84.52;101231.13;1673316;86;22491;-76
2022/11/10 01:49:06;;;;;;;119.55;16.60;;;;;;;1.34;85.09;101240.16;1672683;86;21196;-77
2022/11/10 01:52:32;;;;;;;125.40;16.85;;;;;;;1.35;85.13;101234.66;1673030;86;21220;-77
2022/11/10 01:55:55;;;;;;;161.68;19.55;;;;;;;1.58;84.70;101236.42;1673304;86;21240;-77
2022/11/10 01:59:24;;;;;;;65.75;21.12;;;;;;;1.46;84.96;101239.41;1673598;86;21160;-76
2022/11/10 02:03:01;;;;;;;133.55;19.55;;;;;;;1.48;85.01;101234.78;1673305;86;21196;-76
2022/11/10 02:06:18;;;;;;;88.60;17.45;;;;;;;1.58;84.92;101241.33;1673537;86;21902;-77
2022/11/10 02:09:29;;;;;;;45.23;21.57;;;;;;;1.45;85.17;101239.00;1672411;86;21517;-76
2022/11/10 02:12:55;;;;;;;48.13;20.25;;;;;;;1.58;84.97;101233.23;1672871;86;21759;-76
2022/11/10 02:16:18;;;;;;;112.90;26.80;;;;;;;1.49;85.21;101236.51;1672866;86;21330;-76
2022/11/10 02:19:47;;;;;;;71.85;21.07;;;;;;;1.24;85.62;101240.72;1672177;86;21553;-76
2022/11/10 02:23:40;;;;;;;65.95;22.82;;;;;;;1.21;86.08;101240.91;1672779;84;22583;-76
2022/11/10 02:27:03;;;;;;;91.82;26.40;;;;;;;1.45;85.88;101243.05;1672876;86;21176;-76
2022/11/10 02:30:27;;;;;;;77.62;21.02;;;;;;;1.56;85.18;101241.92;1671441;85;21232;-77
2022/11/10 02:33:51;;;;;;;127.27;22.55;;;;;;;1.69;84.45;101236.59;1664795;86;21197;-76
2022/11/10 02:37:15;;;;;;;70.03;20.12;;;;;;;1.66;84.85;101232.77;1665124;86;21189;-76
2022/11/10 02:40:39;;;;;;;64.20;21.37;;;;;;;1.57;85.12;101233.34;1663784;86;21294;-77
2022/11/10 02:44:03;;;;;;;29.90;17.07;;;;;;;1.65;85.32;101227.00;1664914;86;21193;-76
2022/11/10 02:47:27;;;;;;;65.42;19.02;;;;;;;1.75;84.67;101229.00;1664878;86;21229;-76
2022/11/10 02:50:50;;;;;;;58.80;20.40;;;;;;;1.59;85.28;101232.75;1665002;86;21237;-76
2022/11/10 02:54:14;;;;;;;115.85;21.97;;;;;;;1.55;85.73;101237.46;1664031;86;21260;-76
2022/11/10 02:57:38;;;;;;;75.50;19.42;;;;;;;1.61;85.73;101236.23;1665018;86;21196;-77
2022/11/10 03:01:01;;;;;;;49.80;18.40;;;;;;;1.64;85.83;101238.72;1671311;84;21267;-76
2022/11/10 03:04:25;;;;;;;109.37;21.33;;;;;;;1.61;85.95;101233.54;1697331;84;21326;-77
2022/11/10 03:07:41;;;;;;;137.72;23.32;;;;;;;1.59;86.22;101236.31;1666306;86;21250;-77
2022/11/10 03:10:52;;;;;;;80.62;19.02;;;;;;;1.49;86.64;101236.02;1647600;87;21303;-77
2022/11/10 03:14:15;;;;;;;106.30;22.55;;;;;;;1.61;86.86;101236.23;1636738;87;21228;-77
2022/11/10 03:17:39;;;;;;;59.98;18.85;;;;;;;1.79;86.34;101240.47;1637792;87;21272;-78
2022/11/10 03:21:03;;;;;;;173.90;22.50;;;;;;;1.67;86.89;101239.89;1647864;87;21818;-78
2022/11/10 03:24:20;;;;;;;191.20;23.80;;;;;;;1.56;87.43;101233.83;1637225;87;21212;-78
2022/11/10 03:27:44;;;;;;;83.15;20.65;;;;;;;1.64;87.41;101235.54;1637834;87;21268;-77
2022/11/10 03:31:08;;;;;;;225.70;24.80;;;;;;;1.55;87.65;101232.06;1636545;87;21270;-77
2022/11/10 03:34:30;;;;;;;184.37;25.32;;;;;;;1.59;87.62;101231.41;1675060;85;21262;-77
2022/11/10 03:37:55;;;;;;;209.20;24.05;;;;;;;1.35;88.47;101235.15;1675038;85;21258;-77
2022/11/10 03:41:18;;;;;;;142.07;23.73;;;;;;;1.51;88.70;101237.30;1673692;85;21876;-78
2022/11/10 03:44:41;;;;;;;97.30;23.15;;;;;;;1.48;88.16;101234.78;1673561;85;21218;-77
2022/11/10 03:48:04;;;;;;;133.90;22.93;;;;;;;1.38;89.03;101240.36;1673665;85;21825;-77
2022/11/10 03:51:27;;;;;;;106.67;23.62;;;;;;;1.39;89.16;101235.35;1673525;85;21832;-78
2022/11/10 03:54:51;;;;;;;95.75;20.90;;;;;;;1.33;89.31;101243.83;1673865;85;21261;-78
2022/11/10 03:58:11;;;;;;;43.52;21.25;;;;;;;1.28;89.44;101241.41;1674323;85;21336;-77
2022/11/10 04:01:35;;;;;;;30.62;17.87;;;;;;;1.34;89.07;101243.72;1673007;85;21230;-78
2022/11/10 04:16:02;;;;;;;61.45;23.50;;;;;;;1.58;87.14;101249.41;1674699;85;21883;-76
2022/11/10 04:19:25;;;;;;;75.83;23.75;;;;;;;1.48;87.22;101259.05;1674809;85;21769;-76
2022/11/10 04:26:31;;;;;;;53.40;22.82;;;;;;;1.18;87.73;101265.36;1674874;85;21219;-76
2022/11/10 04:29:56;;;;;;;44.98;22.80;;;;;;;1.21;87.72;101265.16;1674731;85;21246;-76
2022/11/10 04:33:20;;;;;;;88.97;25.45;;;;;;;1.14;88.21;101271.89;1673509;84;21241;-76
2022/11/10 04:36:46;;;;;;;57.85;26.87;;;;;;;1.18;87.79;101264.02;1674841;85;21800;-77
2022/11/10 04:40:11;;;;;;;52.90;21.12;;;;;;;0.99;87.96;101266.09;1674273;85;21324;-76
2022/11/10 04:43:35;;;;;;;41.33;24.37;;;;;;;1.11;87.75;101276.59;1674307;85;21780;-76
2022/11/10 04:46:59;;;;;;;51.13;21.60;;;;;;;1.06;87.56;101274.66;1674815;85;21270;-77
2022/11/10 04:50:25;;;;;;;50.23;22.87;;;;;;;1.06;87.53;101278.22;1674502;85;21294;-78
2022/11/10 04:53:48;;;;;;;49.85;20.82;;;;;;;1.01;87.62;101283.02;1674792;85;21198;-78
2022/11/10 04:57:12;;;;;;;38.67;21.87;;;;;;;1.00;87.73;101283.98;1674688;85;21254;-79
2022/11/10 05:00:37;;;;;;;44.73;19.02;;;;;;;1.05;87.63;101292.66;1674395;85;21202;-79
2022/11/10 05:04:00;;;;;;;46.18;19.12;;;;;;;1.01;87.74;101294.66;1674749;85;21222;-77
2022/11/10 05:07:24;;;;;;;32.53;21.23;;;;;;;0.95;87.95;101301.77;1674746;85;21209;-76
2022/11/10 05:10:49;;;;;;;33.05;22.00;;;;;;;0.84;88.40;101303.34;1674125;85;21352;-76
2022/11/10 05:14:13;;;;;;;35.15;21.68;;;;;;;0.81;88.87;101308.45;1674711;85;22468;-76
2022/11/10 05:17:38;;;;;;;44.73;25.00;;;;;;;1.06;88.86;101305.16;1674672;85;21761;-77
2022/11/10 05:21:02;;;;;;;40.45;22.95;;;;;;;0.99;88.85;101299.77;1674264;85;21769;-78
2022/11/10 05:24:27;;;;;;;44.03;22.55;;;;;;;1.03;89.13;101312.07;1675090;85;21249;-77
2022/11/10 05:27:50;;;;;;;36.20;22.15;;;;;;;1.08;88.87;101312.66;1675443;85;21217;-77
2022/11/10 05:31:14;;;;;;;31.57;20.60;;;;;;;1.17;89.05;101312.59;1674229;85;21250;-77
2022/11/10 05:34:38;;;;;;;47.08;23.20;;;;;;;1.14;89.20;101317.71;1672591;85;21237;-77
2022/11/10 05:38:03;;;;;;;41.13;23.77;;;;;;;1.30;89.22;101317.64;1674755;85;21191;-76
2022/11/10 05:41:26;;;;;;;34.03;20.10;;;;;;;1.45;88.82;101315.84;1674069;85;21293;-77
2022/11/10 05:44:50;;;;;;;47.98;22.35;;;;;;;1.35;89.90;101321.41;1673655;85;21222;-76
2022/11/10 05:48:13;;;;;;;71.85;24.25;;;;;;;1.60;89.46;101329.77;1673623;85;21911;-76
2022/11/10 05:51:38;;;;;;;46.68;20.97;;;;;;;1.52;90.09;101324.83;1644507;87;21275;-76
2022/11/10 05:55:01;;;;;;;30.97;20.02;;;;;;;1.44;90.97;101324.91;1645199;87;21219;-76
2022/11/10 05:58:24;;;;;;;46.02;19.85;;;;;;;1.73;90.14;101330.72;1644998;87;21266;-77
2022/11/10 06:01:49;;;;;;;34.18;21.75;;;;;;;1.71;90.20;101331.80;1644117;87;21777;-76
2022/11/10 06:05:14;;;;;;;34.73;19.80;;;;;;;1.87;89.70;101331.21;1660059;84;21247;-77
2022/11/10 06:08:39;;;;;;;37.55;20.08;;;;;;;1.83;89.73;101323.41;1668088;84;21330;-77
2022/11/10 06:12:02;;;;;;;38.80;19.60;;;;;;;1.94;89.75;101323.62;1679759;83;21288;-76
2022/11/10 06:15:28;;;;;;;116.30;21.33;;;;;;;1.86;90.46;101324.09;1689756;84;21236;-76
2022/11/10 06:18:52;;;;;;;26.97;18.82;;;;;;;2.02;90.83;101325.33;1678871;83;21211;-76
2022/11/10 06:22:18;;;;;;;64.10;18.65;;;;;;;2.09;90.83;101334.78;1686745;83;21299;-77
2022/11/10 06:25:43;;;;;;;58.48;18.70;;;;;;;2.33;90.45;101338.24;1691174;83;21193;-78
2022/11/10 06:29:01;;;;;;;119.20;21.97;;;;;;;2.45;89.87;101336.98;1690874;83;21255;-77
2022/11/10 06:32:24;;;;;;;73.42;21.42;;;;;;;2.55;89.83;101339.95;1691923;83;21234;-77
2022/11/10 06:35:48;;;;;;;64.22;20.62;;;;;;;2.65;89.83;101345.13;1675693;83;21258;-77
2022/11/10 06:39:12;;;;;;;55.92;20.35;;;;;;;2.65;89.57;101337.51;1654180;86;21295;-78
2022/11/10 06:42:37;;;;;;;63.63;21.55;;;;;;;2.66;89.45;101348.20;1653419;86;21747;-79
2022/11/10 06:46:00;;;;;;;44.10;22.07;;;;;;;2.70;89.36;101338.94;1656898;86;21315;-78
2022/11/10 06:49:25;;;;;;;51.20;21.30;;;;;;;2.78;89.60;101343.36;1654701;86;21249;-76
2022/11/10 06:52:47;;;;;;;61.33;21.37;;;;;;;2.93;89.43;101338.77;1643755;86;21279;-76
2022/11/10 06:56:10;;;;;;;50.23;21.27;;;;;;;2.81;90.28;101340.43;1653955;85;21216;-77
2022/11/10 06:59:36;;;;;;;40.43;22.80;;;;;;;3.02;90.35;101338.64;1658274;84;29837;-78
2022/11/10 07:03:13;;;;;;;36.25;22.22;;;;;;;3.16;90.53;101340.42;1657184;86;21259;-78
2022/11/10 07:06:38;;;;;;;46.73;25.75;;;;;;;3.38;90.65;101337.97;1655268;86;21327;-80
2022/11/10 07:09:56;;;;;;;35.08;22.80;;;;;;;3.57;90.34;101339.78;1642407;86;21255;-79
2022/11/10 07:13:19;;;;;;;50.38;30.72;;;;;;;3.59;90.35;101341.91;1646038;86;21913;-79
2022/11/10 07:16:38;;;;;;;50.30;29.47;;;;;;;3.64;91.11;101344.78;1642406;86;21279;-77
2022/11/10 07:24:12;;;;;;;48.83;29.70;;;;;;;3.97;91.64;101346.47;1644444;86;21228;-81
2022/11/10 07:27:36;;;;;;;70.92;48.70;;;;;;;4.21;91.93;101335.73;1661266;85;21281;-82
2022/11/10 07:31:00;;;;;;;75.40;46.40;;;;;;;4.36;92.38;101338.67;1637363;87;21219;-82
2022/11/10 07:34:23;;;;;;;81.92;55.73;;;;;;;4.50;92.79;101334.96;1660598;85;21193;-81
2022/11/10 07:37:50;;;;;;;143.47;90.22;;;;;;;4.76;93.21;101336.26;1638987;86;21231;-79
2022/11/10 07:41:09;;;;;;;70.10;45.78;;;;;;;5.07;93.52;101342.45;1643896;86;21758;-80
2022/11/10 07:44:33;;;;;;;62.45;38.78;;;;;;;5.25;93.59;101338.84;1642896;86;21318;-81
2022/11/10 08:15:30;;;;;;;59.00;39.33;;;;;;;5.35;100.00;101353.42;1747589;79;28328;-76
2022/11/10 08:18:55;;;;;;;53.52;33.73;;;;;;;4.99;100.00;101356.23;1724636;82;21239;-77
2022/11/10 08:22:21;;;;;;;49.18;30.30;;;;;;;5.30;100.00;101348.84;1727724;83;21239;-82
2022/11/10 08:25:45;;;;;;;41.83;28.05;;;;;;;5.22;100.00;101352.66;1744520;80;21176;-84
2022/11/10 08:29:08;;;;;;;41.80;27.37;;;;;;;5.38;100.00;101355.91;1715150;82;21726;-82
2022/11/10 08:32:31;;;;;;;45.95;28.05;;;;;;;5.68;100.00;101351.80;1737772;81;21727;-78
2022/11/10 08:35:51;;;;;;;38.75;24.57;;;;;;;6.13;99.43;101353.28;1736028;81;21171;-84
2022/11/10 08:39:01;;;;;;;32.90;22.50;;;;;;;6.13;98.06;101360.08;1743463;80;21763;-83
2022/11/10 08:42:24;;;;;;;30.08;20.95;;;;;;;6.37;96.15;101358.10;1746834;80;21203;-78
2022/11/10 08:45:48;;;;;;;31.65;20.08;;;;;;;6.49;93.69;101356.23;1712959;82;21289;-84
2022/11/10 08:49:11;;;;;;;28.98;18.10;;;;;;;6.46;91.95;101356.50;1722135;81;21152;-83
2022/11/10 08:52:35;;;;;;;22.52;16.55;;;;;;;6.94;90.56;101356.67;1727664;81;21214;-84
2022/11/10 08:55:59;;;;;;;22.98;17.62;;;;;;;6.96;89.47;101359.62;1725726;81;21171;-83
2022/11/10 08:59:22;;;;;;;22.98;15.88;;;;;;;7.10;87.99;101360.69;1724992;81;21180;-82
2022/11/10 09:02:48;;;;;;;22.25;15.75;;;;;;;7.21;86.55;101353.51;1742124;80;21243;-83
2022/11/10 09:06:12;;;;;;;23.75;15.58;;;;;;;6.74;86.36;101352.89;1715659;81;21169;-78
2022/11/10 09:09:37;;;;;;;22.25;16.32;;;;;;;6.91;86.34;101353.20;1748747;80;21747;-83
2022/11/10 09:12:56;;;;;;;26.87;17.83;;;;;;;7.38;84.93;101355.64;1714425;82;21207;-77
2022/11/10 09:16:19;;;;;;;27.35;18.12;;;;;;;7.82;82.27;101350.98;1697540;82;21362;-76
2022/11/10 09:19:42;;;;;;;28.92;18.67;;;;;;;7.79;81.40;101352.09;1697643;83;21763;-77
2022/11/10 09:23:14;;;;;;;27.55;19.30;;;;;;;7.57;82.63;101348.13;1637020;81;30166;-78
2022/11/10 09:26:38;;;;;;;26.45;20.43;;;;;;;7.50;81.82;101347.81;1629204;86;21701;-77
2022/11/10 09:30:01;;;;;;;32.42;20.75;;;;;;;8.06;79.31;101341.16;1641597;85;21353;-78
2022/11/10 09:33:26;;;;;;;27.60;19.60;;;;;;;8.31;78.57;101341.20;1614771;87;21222;-77
2022/11/10 09:36:50;;;;;;;27.75;19.23;;;;;;;8.59;77.74;101335.53;1663301;84;22177;-77
2022/11/10 09:40:20;;;;;;;24.07;17.17;;;;;;;8.14;78.77;101331.31;1615745;87;21222;-84
2022/11/10 09:44:10;;;;;;;24.72;17.87;;;;;;;8.54;78.19;101336.45;1653681;85;21763;-82
2022/11/10 09:47:41;;;;;;;26.40;18.75;;;;;;;8.48;77.46;101326.97;1615812;87;21223;-76
2022/11/10 09:51:28;;;;;;;32.45;21.35;;;;;;;8.77;75.65;101338.47;1647268;85;21200;-83
2022/11/10 09:55:04;;;;;;;31.10;19.92;;;;;;;8.70;75.50;101328.13;1618931;87;21225;-78
2022/11/10 09:58:29;;;;;;;28.95;19.90;;;;;;;8.94;75.21;101334.56;1631965;86;21218;-78
2022/11/10 10:01:59;;;;;;;26.57;17.75;;;;;;;8.51;76.00;101325.81;1639474;86;21134;-76
2022/11/10 10:05:28;;;;;;;24.85;18.57;;;;;;;8.80;75.10;101331.34;1644307;86;21214;-77
2022/11/10 10:09:10;;;;;;;30.65;22.02;;;;;;;9.02;74.07;101327.52;1640011;86;21233;-77
2022/11/10 10:13:00;;;;;;;27.50;19.62;;;;;;;8.91;73.46;101327.16;1633240;86;21252;-79
2022/11/10 11:30:27;;;;;;;28.27;17.48;;;;;;;8.63;73.57;101328.81;1719119;81;21158;-79
2022/11/10 11:33:56;;;;;;;27.75;19.45;;;;;;;8.40;73.44;101334.46;1710672;83;21861;-78
2022/11/10 11:37:25;;;;;;;31.15;19.42;;;;;;;8.50;73.61;101329.05;1693141;84;21185;-79
2022/11/10 11:40:56;;;;;;;27.50;19.15;;;;;;;7.62;76.21;101329.54;1705144;82;21184;-80
2022/11/10 11:44:55;;;;;;;26.10;16.23;;;;;;;7.58;77.49;101325.38;1737202;82;21193;-80
2022/11/10 11:48:58;;;;;;;28.15;16.65;;;;;;;7.55;77.61;101328.36;1706845;82;21328;-81
2022/11/10 11:52:37;;;;;;;39.13;22.73;;;;;;;7.81;77.61;101328.80;1706957;82;21348;-79
2022/11/10 11:56:22;;;;;;;32.10;20.48;;;;;;;7.92;77.46;101321.44;1706803;82;21538;-81
2022/11/10 12:00:12;;;;;;;35.63;21.80;;;;;;;8.07;76.18;101322.45;1691429;83;21254;-79
2022/11/10 12:04:08;;;;;;;28.92;18.57;;;;;;;8.11;76.58;101310.28;1751517;81;21204;-80
2022/11/10 12:08:03;;;;;;;28.32;19.23;;;;;;;8.48;75.13;101316.06;1710821;82;21172;-79
2022/11/10 12:12:10;;;;;;;25.12;17.17;;;;;;;8.48;74.09;101313.84;1735686;82;21213;-79
2022/11/10 12:15:55;;;;;;;27.15;18.65;;;;;;;8.34;74.31;101316.41;1697866;84;21197;-79
2022/11/10 12:19:47;;;;;;;33.18;21.45;;;;;;;8.48;74.62;101311.97;1668275;86;21257;-80
2022/11/10 12:23:46;;;;;;;31.25;19.80;;;;;;;8.87;73.25;101312.06;1688123;83;21242;-79
2022/11/10 12:27:33;;;;;;;33.75;21.52;;;;;;;8.53;73.89;101311.56;1691462;84;21203;-80
2022/11/10 12:30:57;;;;;;;41.58;23.45;;;;;;;8.60;73.80;101314.08;1737240;81;21227;-80
2022/11/10 12:34:47;;;;;;;35.85;22.93;;;;;;;8.63;73.04;101316.03;1706059;82;21154;-80
2022/11/10 12:38:21;;;;;;;;;;;;;;;8.49;73.49;101320.51;1742638;82;21248;-80
2022/11/10 12:41:53;;;;;;;44.23;25.48;;;;;;;7.97;74.69;101321.53;1715138;82;20220;-81
2022/11/10 12:45:33;;;;;;;50.78;29.65;;;;;;;8.39;74.69;101321.84;1708036;82;21782;-81
2022/11/10 12:49:27;;;;;;;64.42;32.83;;;;;;;8.40;74.48;101324.92;1708977;82;21219;-80
2022/11/10 12:53:04;;;;;;;70.10;35.55;;;;;;;8.43;74.21;101323.30;1627105;87;21244;-80
2022/11/10 12:56:48;;;;;;;81.45;42.90;;;;;;;8.24;74.85;101328.64;1716230;81;21814;-80
2022/11/10 13:00:15;;;;;;;80.32;42.38;;;;;;;8.05;75.86;101329.41;1734376;82;21821;-80
2022/11/10 13:03:44;;;;;;;79.95;44.55;;;;;;;8.31;75.44;101333.89;1735811;82;21731;-80
2022/11/10 13:07:03;;;;;;;78.97;41.10;;;;;;;8.31;75.32;101331.16;1736019;82;21229;-80
2022/11/10 13:10:30;;;;;;;79.90;42.75;;;;;;;8.20;75.41;101329.41;1735702;82;21228;-80
2022/11/10 13:14:08;;;;;;;79.03;44.50;;;;;;;8.17;76.00;101335.61;1736393;82;21204;-80
2022/11/10 13:17:39;;;;;;;87.10;47.50;;;;;;;8.21;75.36;101337.08;1736501;82;21153;-80
2022/11/10 13:21:02;;;;;;;88.75;46.55;;;;;;;8.22;75.68;101327.03;1736686;82;21165;-80
2022/11/10 13:24:35;;;;;;;91.50;49.10;;;;;;;8.29;75.29;101333.68;1736698;82;21315;-80
2022/11/10 13:27:51;;;;;;;84.80;47.60;;;;;;;7.99;76.07;101329.06;1737351;82;21153;-80
2022/11/10 13:31:08;;;;;;;76.97;43.65;;;;;;;8.40;74.92;101322.19;1741789;81;21272;-80
2022/11/10 13:34:38;;;;;;;87.78;47.23;;;;;;;8.20;75.42;101321.23;1720762;81;21188;-80
2022/11/10 13:38:01;;;;;;;86.35;46.08;;;;;;;7.97;75.68;101328.34;1755991;81;21271;-80
2022/11/10 13:41:24;;;;;;;86.28;48.52;;;;;;;7.23;78.93;101329.23;1755852;81;21184;-79
2022/11/10 13:44:47;;;;;;;73.47;43.60;;;;;;;7.31;78.83;101329.46;1755910;81;21188;-80
2022/11/10 13:48:36;;;;;;;77.08;44.63;;;;;;;7.46;78.01;101330.50;1756106;81;21176;-79
2022/11/10 13:52:17;;;;;;;74.92;42.80;;;;;;;7.35;78.08;101322.77;1755933;81;21180;-80
2022/11/10 13:56:10;;;;;;;72.67;41.83;;;;;;;6.91;79.42;101321.92;1736614;81;21195;-79
2022/11/10 13:59:37;;;;;;;67.40;37.17;;;;;;;6.99;79.64;101319.07;1756018;81;21187;-80
2022/11/10 14:03:07;;;;;;;64.22;37.75;;;;;;;6.97;79.53;101311.55;1757030;81;21136;-79
2022/11/10 14:06:48;;;;;;;71.05;37.58;;;;;;;7.18;78.79;101319.24;1754429;81;21219;-79
2022/11/10 14:10:15;;;;;;;59.67;34.00;;;;;;;6.89;79.15;101325.28;1755565;81;21200;-79
2022/11/10 14:13:40;;;;;;;47.98;31.15;;;;;;;6.91;78.56;101323.28;1756188;81;21391;-82
2022/11/10 14:17:04;;;;;;;58.68;31.17;;;;;;;6.87;78.84;101330.00;1754666;81;22492;-81
2022/11/10 14:20:52;;;;;;;45.78;28.52;;;;;;;6.88;78.61;101330.36;1755912;81;21299;-80
2022/11/10 14:24:29;;;;;;;44.23;26.97;;;;;;;5.87;80.99;101331.72;1756082;81;21183;-80
2022/11/10 14:27:52;;;;;;;43.95;28.00;;;;;;;6.35;81.09;101326.13;1756895;81;21725;-81
2022/11/10 14:31:19;;;;;;;41.68;26.55;;;;;;;6.02;82.11;101331.06;1760379;80;21219;-80
2022/11/10 14:34:46;;;;;;;107.37;54.85;;;;;;;6.09;81.80;101332.78;1781982;80;21230;-79
2022/11/10 14:38:11;;;;;;;90.95;50.73;;;;;;;5.63;83.51;101335.02;1781075;80;21251;-79
2022/11/10 14:41:36;;;;;;;52.90;33.30;;;;;;;5.68;83.88;101328.73;1782881;80;21171;-80
2022/11/10 14:45:14;;;;;;;48.63;29.05;;;;;;;5.46;84.88;101335.45;1782180;80;21184;-80
2022/11/10 14:48:43;;;;;;;41.30;30.25;;;;;;;5.94;83.71;101340.80;1783328;80;21203;-80
2022/11/10 14:52:07;;;;;;;41.58;26.65;;;;;;;5.99;82.90;101338.58;1782292;80;21176;-80
2022/11/10 14:55:34;;;;;;;44.15;28.23;;;;;;;5.90;82.53;101335.56;1781816;80;21219;-80
2022/11/10 14:58:58;;;;;;;53.87;30.75;;;;;;;5.85;82.40;101342.35;1782571;80;21179;-80
2022/11/10 15:02:23;;;;;;;60.58;35.88;;;;;;;5.68;82.68;101348.23;1742774;82;21183;-81
2022/11/10 15:05:46;;;;;;;53.40;33.10;;;;;;;5.67;82.49;101348.72;1742131;82;21204;-81
2022/11/10 15:09:30;;;;;;;54.03;33.83;;;;;;;5.36;83.13;101349.75;1742749;82;21784;-80
2022/11/10 15:13:04;;;;;;;55.65;35.98;;;;;;;5.24;82.28;101355.23;1742166;82;21181;-80
2022/11/10 15:16:37;;;;;;;53.25;34.03;;;;;;;4.74;83.83;101358.03;1741328;82;21212;-80
2022/11/10 15:20:02;;;;;;;57.23;33.58;;;;;;;4.25;85.84;101356.20;1741423;82;21688;-80
2022/11/10 15:23:31;;;;;;;79.05;32.25;;;;;;;4.36;85.39;101348.65;1742339;82;21197;-80
2022/11/10 15:26:55;;;;;;;43.63;24.33;;;;;;;4.18;86.16;101350.83;1741638;82;21208;-79
2022/11/10 15:30:29;;;;;;;62.10;30.43;;;;;;;4.53;85.15;101352.85;1742548;82;21231;-80
2022/11/10 15:33:57;;;;;;;67.32;32.58;;;;;;;4.79;83.83;101354.48;1744305;82;21381;-79
2022/11/10 15:37:33;;;;;;;55.95;32.83;;;;;;;4.93;82.82;101343.98;1778411;80;21179;-80
2022/11/10 15:40:58;;;;;;;52.10;34.50;;;;;;;4.54;83.96;101362.70;1779457;80;21215;-80
2022/11/10 15:44:30;;;;;;;60.35;35.60;;;;;;;4.67;83.42;101356.77;1779808;80;21179;-80
2022/11/10 15:47:54;;;;;;;69.27;37.33;;;;;;;4.30;84.47;101358.09;1778284;80;21764;-80
2022/11/10 15:51:20;;;;;;;58.75;34.25;;;;;;;4.39;84.12;101354.34;1779958;80;21179;-80
2022/11/10 15:54:44;;;;;;;55.38;33.53;;;;;;;4.02;84.49;101357.84;1779602;80;21250;-79
2022/11/10 15:58:08;;;;;;;54.35;33.38;;;;;;;3.96;84.80;101355.58;1778752;80;21190;-79
2022/11/10 16:01:31;;;;;;;59.27;37.35;;;;;;;4.10;83.74;101355.46;1779726;80;21191;-80
2022/11/10 16:04:57;;;;;;;80.87;49.15;;;;;;;3.78;84.72;101357.73;1778248;80;21218;-80
2022/11/10 16:08:26;;;;;;;104.27;55.23;;;;;;;3.82;84.93;101357.03;1778667;80;21219;-80
2022/11/10 16:11:49;;;;;;;89.23;53.27;;;;;;;3.66;85.30;101367.17;1744852;82;21216;-80
2022/11/10 16:15:17;;;;;;;82.88;48.10;;;;;;;4.01;84.43;101360.66;1779840;80;21251;-80
2022/11/10 16:18:41;;;;;;;108.70;58.98;;;;;;;4.02;84.62;101359.20;1778651;80;21191;-80
2022/11/10 16:22:05;;;;;;;95.57;55.67;;;;;;;3.79;84.74;101370.28;1779312;80;21290;-80
2022/11/10 16:25:29;;;;;;;84.83;49.45;;;;;;;3.81;84.93;101371.52;1779376;80;21207;-80
2022/11/10 16:28:54;;;;;;;81.67;45.05;;;;;;;3.70;85.14;101366.00;1778010;80;21219;-80
2022/11/10 16:32:19;;;;;;;75.03;42.73;;;;;;;3.94;84.76;101370.18;1745343;82;21191;-79
2022/11/10 16:35:42;;;;;;;83.50;47.78;;;;;;;3.66;85.68;101369.39;1779292;80;21246;-80
2022/11/10 16:39:06;;;;;;;81.78;49.05;;;;;;;3.91;85.50;101369.92;1778344;80;21187;-79
2022/11/10 16:42:23;;;;;;;86.37;54.05;;;;;;;3.63;85.94;101362.00;1779019;80;21207;-79
2022/11/10 16:45:33;;;;;;;79.90;46.28;;;;;;;3.73;86.31;101365.80;1780149;80;21255;-80
2022/11/10 16:48:37;;;;;;;92.75;51.98;;;;;;;3.68;86.55;101372.02;1778474;80;21271;-81
2022/11/10 16:51:49;;;;;;;84.28;52.93;;;;;;;3.57;86.82;101370.89;1779998;80;21188;-81
2022/11/10 16:54:54;;;;;;;97.82;56.48;;;;;;;3.67;86.11;101369.80;1778468;80;21223;-81
2022/11/10 16:58:18;;;;;;;95.45;54.13;;;;;;;3.46;86.89;101370.77;1744516;82;21266;-80
2022/11/10 17:01:42;;;;;;;94.85;55.43;;;;;;;3.43;86.80;101366.91;1780008;80;21180;-80
2022/11/10 17:05:06;;;;;;;88.30;55.05;;;;;;;3.57;86.44;101376.30;1779466;80;21219;-80
2022/11/10 17:08:32;;;;;;;88.05;52.60;;;;;;;3.55;86.46;101371.98;1779304;80;21330;-81
2022/11/10 17:11:56;;;;;;;88.42;51.95;;;;;;;3.51;86.69;101359.64;1779697;80;21805;-80
2022/11/10 17:15:21;;;;;;;89.20;53.73;;;;;;;3.76;85.76;101362.36;1778395;80;21195;-81
2022/11/10 17:18:44;;;;;;;77.47;47.35;;;;;;;3.49;86.89;101357.05;1779474;80;21211;-82
2022/11/10 17:22:07;;;;;;;87.65;48.10;;;;;;;3.43;86.82;101356.09;1780111;80;21180;-81
2022/11/10 17:25:36;;;;;;;80.90;48.68;;;;;;;3.85;86.88;101363.56;1746147;82;21239;-80
2022/11/10 17:28:59;;;;;;;91.80;48.10;;;;;;;3.77;86.39;101360.55;1779216;80;21223;-81
2022/11/10 17:32:24;;;;;;;85.67;52.73;;;;;;;3.89;85.97;101362.37;1780428;80;21188;-81
2022/11/10 17:35:52;;;;;;;103.83;55.80;;;;;;;3.83;85.96;101364.17;1768863;80;21211;-81
2022/11/10 17:39:22;;;;;;;98.00;54.53;;;;;;;3.66;86.30;101365.33;1767197;81;21168;-80
2022/11/10 17:42:46;;;;;;;89.10;51.90;;;;;;;2.94;88.72;101362.61;1767869;81;21239;-80
2022/11/10 17:46:09;;;;;;;91.57;51.48;;;;;;;2.68;90.82;101365.20;1731945;83;21802;-81
2022/11/10 17:49:34;;;;;;;85.92;51.55;;;;;;;2.30;91.72;101360.41;1730790;83;21217;-81
2022/11/10 17:52:59;;;;;;;114.90;60.03;;;;;;;2.35;92.34;101361.46;1730302;82;21248;-80
2022/11/10 17:56:24;;;;;;;102.72;56.77;;;;;;;2.79;91.50;101364.00;1734458;82;21086;-81